sensor_id;sensor_type;location;lat;lon;timestamp;temperature;humidity
4964;DHT22;2497;47.410;9.740;2023-05-19T00:01:16;10.50;99.90
4964;DHT22;2497;47.410;9.740;2023-05-19T00:03:52;10.50;99.90
4964;DHT22;2497;47.410;9.740;2023-05-19T00:06:22;10.50;99.90
4964;DHT22;2497;47.410;9.740;2023-05-19T00:08:56;10.50;99.90
4964;DHT22;2497;47.410;9.740;2023-05-19T00:11:23;10.60;99.90
4964;DHT22;2497;47.410;9.740;2023-05-19T00:13:52;10.60;99.90
4964;DHT22;2497;47.410;9.740;2023-05-19T00:16:20;10.50;99.90
4964;DHT22;2497;47.410;9.740;2023-05-19T00:18:47;10.60;99.90
4964;DHT22;2497;47.410;9.740;2023-05-19T00:21:16;10.50;99.90
4964;DHT22;2497;47.410;9.740;2023-05-19T00:23:43;10.40;99.90
4964;DHT22;2497;47.410;9.740;2023-05-19T00:26:10;10.30;99.90
4964;DHT22;2497;47.410;9.740;2023-05-19T00:28:38;10.40;99.90
4964;DHT22;2497;47.410;9.740;2023-05-19T00:31:05;10.50;99.90
4964;DHT22;2497;47.410;9.740;2023-05-19T00:33:32;10.50;99.90
4964;DHT22;2497;47.410;9.740;2023-05-19T00:36:03;10.50;99.90
4964;DHT22;2497;47.410;9.740;2023-05-19T00:38:33;10.50;99.90
4964;DHT22;2497;47.410;9.740;2023-05-19T00:41:00;10.40;99.90
4964;DHT22;2497;47.410;9.740;2023-05-19T00:43:29;10.40;99.90
4964;DHT22;2497;47.410;9.740;2023-05-19T00:45:57;10.40;99.90
4964;DHT22;2497;47.410;9.740;2023-05-19T00:48:24;10.40;99.90
4964;DHT22;2497;47.410;9.740;2023-05-19T00:50:52;10.40;99.90
4964;DHT22;2497;47.410;9.740;2023-05-19T00:53:20;10.40;99.90
4964;DHT22;2497;47.410;9.740;2023-05-19T00:55:50;10.40;99.90
4964;DHT22;2497;47.410;9.740;2023-05-19T00:58:17;10.30;99.90
4964;DHT22;2497;47.410;9.740;2023-05-19T01:00:45;10.30;99.90
4964;DHT22;2497;47.410;9.740;2023-05-19T01:03:12;10.30;99.90
4964;DHT22;2497;47.410;9.740;2023-05-19T01:05:45;10.30;99.90
4964;DHT22;2497;47.410;9.740;2023-05-19T01:08:12;10.20;99.90
4964;DHT22;2497;47.410;9.740;2023-05-19T01:10:39;10.30;99.90
4964;DHT22;2497;47.410;9.740;2023-05-19T01:13:07;10.30;99.90
4964;DHT22;2497;47.410;9.740;2023-05-19T01:15:39;10.20;99.90
4964;DHT22;2497;47.410;9.740;2023-05-19T01:18:16;10.10;99.90
4964;DHT22;2497;47.410;9.740;2023-05-19T01:20:52;10.10;99.90
4964;DHT22;2497;47.410;9.740;2023-05-19T01:23:32;10.10;99.90
4964;DHT22;2497;47.410;9.740;2023-05-19T01:26:10;10.10;99.90
4964;DHT22;2497;47.410;9.740;2023-05-19T01:29:07;10.20;99.90
4964;DHT22;2497;47.410;9.740;2023-05-19T01:31:42;10.20;99.90
4964;DHT22;2497;47.410;9.740;2023-05-19T01:34:13;10.10;99.90
4964;DHT22;2497;47.410;9.740;2023-05-19T01:36:42;10.10;99.90
4964;DHT22;2497;47.410;9.740;2023-05-19T01:39:10;10.00;99.90
4964;DHT22;2497;47.410;9.740;2023-05-19T01:41:40;10.00;99.90
4964;DHT22;2497;47.410;9.740;2023-05-19T01:44:09;9.90;99.90
4964;DHT22;2497;47.410;9.740;2023-05-19T01:46:36;9.90;99.90
4964;DHT22;2497;47.410;9.740;2023-05-19T01:49:05;9.90;99.90
4964;DHT22;2497;47.410;9.740;2023-05-19T01:51:33;9.90;99.90
4964;DHT22;2497;47.410;9.740;2023-05-19T01:54:01;9.90;99.90
4964;DHT22;2497;47.410;9.740;2023-05-19T01:56:36;9.90;99.90
4964;DHT22;2497;47.410;9.740;2023-05-19T01:59:18;9.90;99.90
4964;DHT22;2497;47.410;9.740;2023-05-19T02:01:50;9.90;99.90
4964;DHT22;2497;47.410;9.740;2023-05-19T02:04:27;9.80;99.90
4964;DHT22;2497;47.410;9.740;2023-05-19T02:07:00;9.70;99.90
4964;DHT22;2497;47.410;9.740;2023-05-19T02:09:37;9.70;99.90
4964;DHT22;2497;47.410;9.740;2023-05-19T02:12:10;9.70;99.90
4964;DHT22;2497;47.410;9.740;2023-05-19T02:14:44;9.70;99.90
4964;DHT22;2497;47.410;9.740;2023-05-19T02:17:12;9.70;99.90
4964;DHT22;2497;47.410;9.740;2023-05-19T02:19:42;9.70;99.90
4964;DHT22;2497;47.410;9.740;2023-05-19T02:22:09;9.70;99.90
4964;DHT22;2497;47.410;9.740;2023-05-19T02:24:36;9.70;99.90
4964;DHT22;2497;47.410;9.740;2023-05-19T02:27:04;9.70;99.90
4964;DHT22;2497;47.410;9.740;2023-05-19T02:29:32;9.70;99.90
4964;DHT22;2497;47.410;9.740;2023-05-19T02:32:00;9.80;99.90
4964;DHT22;2497;47.410;9.740;2023-05-19T02:34:27;9.70;99.90
4964;DHT22;2497;47.410;9.740;2023-05-19T02:36:56;9.70;99.90
4964;DHT22;2497;47.410;9.740;2023-05-19T02:39:23;9.70;99.90
4964;DHT22;2497;47.410;9.740;2023-05-19T02:41:51;9.70;99.90
4964;DHT22;2497;47.410;9.740;2023-05-19T02:44:18;9.70;99.90
4964;DHT22;2497;47.410;9.740;2023-05-19T02:46:45;9.70;99.90
4964;DHT22;2497;47.410;9.740;2023-05-19T02:49:13;9.70;99.90
4964;DHT22;2497;47.410;9.740;2023-05-19T02:51:40;9.70;99.90
4964;DHT22;2497;47.410;9.740;2023-05-19T02:54:08;9.70;99.90
4964;DHT22;2497;47.410;9.740;2023-05-19T02:56:35;9.60;99.90
4964;DHT22;2497;47.410;9.740;2023-05-19T02:59:02;9.60;99.90
4964;DHT22;2497;47.410;9.740;2023-05-19T03:01:30;9.60;99.90
4964;DHT22;2497;47.410;9.740;2023-05-19T03:03:58;9.60;99.90
4964;DHT22;2497;47.410;9.740;2023-05-19T03:06:25;9.60;99.90
4964;DHT22;2497;47.410;9.740;2023-05-19T03:08:52;9.40;99.90
4964;DHT22;2497;47.410;9.740;2023-05-19T03:11:21;9.40;99.90
4964;DHT22;2497;47.410;9.740;2023-05-19T03:13:48;9.40;99.90
4964;DHT22;2497;47.410;9.740;2023-05-19T03:16:15;9.40;99.90
4964;DHT22;2497;47.410;9.740;2023-05-19T03:18:42;9.50;99.90
4964;DHT22;2497;47.410;9.740;2023-05-19T03:21:09;9.40;99.90
4964;DHT22;2497;47.410;9.740;2023-05-19T03:23:36;9.40;99.90
4964;DHT22;2497;47.410;9.740;2023-05-19T03:26:04;9.50;99.90
4964;DHT22;2497;47.410;9.740;2023-05-19T03:28:32;9.40;99.90
4964;DHT22;2497;47.410;9.740;2023-05-19T03:30:59;9.30;99.90
4964;DHT22;2497;47.410;9.740;2023-05-19T03:33:26;9.30;99.90
4964;DHT22;2497;47.410;9.740;2023-05-19T03:35:55;9.20;99.90
4964;DHT22;2497;47.410;9.740;2023-05-19T03:38:23;9.10;99.90
4964;DHT22;2497;47.410;9.740;2023-05-19T03:40:50;9.10;99.90
4964;DHT22;2497;47.410;9.740;2023-05-19T03:43:18;9.10;99.90
4964;DHT22;2497;47.410;9.740;2023-05-19T03:45:46;9.10;99.90
4964;DHT22;2497;47.410;9.740;2023-05-19T03:48:13;9.10;99.90
4964;DHT22;2497;47.410;9.740;2023-05-19T03:50:40;9.10;99.90
4964;DHT22;2497;47.410;9.740;2023-05-19T03:53:09;9.10;99.90
4964;DHT22;2497;47.410;9.740;2023-05-19T03:55:36;9.10;99.90
4964;DHT22;2497;47.410;9.740;2023-05-19T03:58:03;9.00;99.90
4964;DHT22;2497;47.410;9.740;2023-05-19T04:00:30;9.10;99.90
4964;DHT22;2497;47.410;9.740;2023-05-19T04:02:59;9.10;99.90
4964;DHT22;2497;47.410;9.740;2023-05-19T04:05:26;9.10;99.90
4964;DHT22;2497;47.410;9.740;2023-05-19T04:07:53;9.10;99.90
4964;DHT22;2497;47.410;9.740;2023-05-19T04:10:20;9.10;99.90
4964;DHT22;2497;47.410;9.740;2023-05-19T04:12:48;9.20;99.90
4964;DHT22;2497;47.410;9.740;2023-05-19T04:15:15;9.30;99.90
4964;DHT22;2497;47.410;9.740;2023-05-19T04:17:42;9.40;99.90
4964;DHT22;2497;47.410;9.740;2023-05-19T04:20:11;9.30;99.90
4964;DHT22;2497;47.410;9.740;2023-05-19T04:22:38;9.10;99.90
4964;DHT22;2497;47.410;9.740;2023-05-19T04:25:06;9.20;99.90
4964;DHT22;2497;47.410;9.740;2023-05-19T04:27:36;9.20;99.90
4964;DHT22;2497;47.410;9.740;2023-05-19T04:30:03;9.10;99.90
4964;DHT22;2497;47.410;9.740;2023-05-19T04:32:31;9.20;99.90
4964;DHT22;2497;47.410;9.740;2023-05-19T04:34:58;9.20;99.90
4964;DHT22;2497;47.410;9.740;2023-05-19T04:37:26;9.30;99.90
4964;DHT22;2497;47.410;9.740;2023-05-19T04:39:54;9.30;99.90
4964;DHT22;2497;47.410;9.740;2023-05-19T04:42:21;9.30;99.90
4964;DHT22;2497;47.410;9.740;2023-05-19T04:44:50;9.30;99.90
4964;DHT22;2497;47.410;9.740;2023-05-19T04:47:17;9.40;99.90
4964;DHT22;2497;47.410;9.740;2023-05-19T04:49:46;9.40;99.90
4964;DHT22;2497;47.410;9.740;2023-05-19T04:52:13;9.40;99.90
4964;DHT22;2497;47.410;9.740;2023-05-19T04:54:41;9.50;99.90
4964;DHT22;2497;47.410;9.740;2023-05-19T04:57:08;9.60;99.90
4964;DHT22;2497;47.410;9.740;2023-05-19T04:59:37;9.60;99.90
4964;DHT22;2497;47.410;9.740;2023-05-19T05:02:04;9.70;99.90
4964;DHT22;2497;47.410;9.740;2023-05-19T05:04:31;9.70;99.90
4964;DHT22;2497;47.410;9.740;2023-05-19T05:06:58;9.70;99.90
4964;DHT22;2497;47.410;9.740;2023-05-19T05:09:25;9.70;99.90
4964;DHT22;2497;47.410;9.740;2023-05-19T05:11:54;9.70;99.90
4964;DHT22;2497;47.410;9.740;2023-05-19T05:14:22;9.80;99.90
4964;DHT22;2497;47.410;9.740;2023-05-19T05:16:49;9.90;99.90
4964;DHT22;2497;47.410;9.740;2023-05-19T05:19:17;10.00;99.90
4964;DHT22;2497;47.410;9.740;2023-05-19T05:21:44;10.00;99.90
4964;DHT22;2497;47.410;9.740;2023-05-19T05:24:13;10.00;99.90
4964;DHT22;2497;47.410;9.740;2023-05-19T05:26:40;10.10;99.90
4964;DHT22;2497;47.410;9.740;2023-05-19T05:29:09;10.20;99.90
4964;DHT22;2497;47.410;9.740;2023-05-19T05:31:36;10.30;99.90
4964;DHT22;2497;47.410;9.740;2023-05-19T05:34:03;10.40;99.90
4964;DHT22;2497;47.410;9.740;2023-05-19T05:36:30;10.50;99.90
4964;DHT22;2497;47.410;9.740;2023-05-19T05:38:57;10.70;99.90
4964;DHT22;2497;47.410;9.740;2023-05-19T05:41:24;10.70;99.90
4964;DHT22;2497;47.410;9.740;2023-05-19T05:43:52;10.80;99.90
4964;DHT22;2497;47.410;9.740;2023-05-19T05:46:20;11.00;99.90
4964;DHT22;2497;47.410;9.740;2023-05-19T05:48:48;11.20;99.90
4964;DHT22;2497;47.410;9.740;2023-05-19T05:51:15;11.30;99.90
4964;DHT22;2497;47.410;9.740;2023-05-19T05:53:44;11.40;99.90
4964;DHT22;2497;47.410;9.740;2023-05-19T05:56:13;11.20;99.90
4964;DHT22;2497;47.410;9.740;2023-05-19T05:58:40;11.30;99.90
4964;DHT22;2497;47.410;9.740;2023-05-19T06:01:08;11.30;99.90
4964;DHT22;2497;47.410;9.740;2023-05-19T06:03:39;11.50;99.90
4964;DHT22;2497;47.410;9.740;2023-05-19T06:06:06;11.50;99.90
4964;DHT22;2497;47.410;9.740;2023-05-19T06:08:33;11.60;99.90
4964;DHT22;2497;47.410;9.740;2023-05-19T06:11:00;11.70;99.90
4964;DHT22;2497;47.410;9.740;2023-05-19T06:13:33;11.80;99.90
4964;DHT22;2497;47.410;9.740;2023-05-19T06:16:00;11.90;99.90
4964;DHT22;2497;47.410;9.740;2023-05-19T06:18:27;11.90;99.90
4964;DHT22;2497;47.410;9.740;2023-05-19T06:20:56;11.90;99.90
4964;DHT22;2497;47.410;9.740;2023-05-19T06:23:23;12.00;99.90
4964;DHT22;2497;47.410;9.740;2023-05-19T06:25:51;12.20;99.90
4964;DHT22;2497;47.410;9.740;2023-05-19T06:28:18;12.20;99.90
4964;DHT22;2497;47.410;9.740;2023-05-19T06:30:45;12.10;99.90
4964;DHT22;2497;47.410;9.740;2023-05-19T06:33:12;12.30;99.90
4964;DHT22;2497;47.410;9.740;2023-05-19T06:35:39;12.20;99.90
4964;DHT22;2497;47.410;9.740;2023-05-19T06:38:08;12.30;99.90
4964;DHT22;2497;47.410;9.740;2023-05-19T06:40:35;12.20;99.90
4964;DHT22;2497;47.410;9.740;2023-05-19T06:43:02;12.20;99.90
4964;DHT22;2497;47.410;9.740;2023-05-19T06:45:29;12.50;99.90
4964;DHT22;2497;47.410;9.740;2023-05-19T06:47:56;12.80;99.90
4964;DHT22;2497;47.410;9.740;2023-05-19T06:50:24;12.80;99.90
4964;DHT22;2497;47.410;9.740;2023-05-19T06:52:51;13.00;99.90
4964;DHT22;2497;47.410;9.740;2023-05-19T06:55:19;12.80;99.90
4964;DHT22;2497;47.410;9.740;2023-05-19T06:57:46;12.90;99.90
4964;DHT22;2497;47.410;9.740;2023-05-19T07:00:14;13.00;99.90
4964;DHT22;2497;47.410;9.740;2023-05-19T07:02:41;13.10;99.90
4964;DHT22;2497;47.410;9.740;2023-05-19T07:05:08;13.20;99.90
4964;DHT22;2497;47.410;9.740;2023-05-19T07:07:36;13.50;99.90
4964;DHT22;2497;47.410;9.740;2023-05-19T07:10:03;13.70;99.90
4964;DHT22;2497;47.410;9.740;2023-05-19T07:12:32;13.70;99.90
4964;DHT22;2497;47.410;9.740;2023-05-19T07:15:01;13.80;99.90
4964;DHT22;2497;47.410;9.740;2023-05-19T07:17:28;13.60;99.90
4964;DHT22;2497;47.410;9.740;2023-05-19T07:19:55;13.60;99.90
4964;DHT22;2497;47.410;9.740;2023-05-19T07:22:22;13.80;99.90
4964;DHT22;2497;47.410;9.740;2023-05-19T07:24:49;13.90;99.90
4964;DHT22;2497;47.410;9.740;2023-05-19T07:27:17;14.30;99.90
4964;DHT22;2497;47.410;9.740;2023-05-19T07:29:47;14.40;99.90
4964;DHT22;2497;47.410;9.740;2023-05-19T07:32:14;14.40;99.90
4964;DHT22;2497;47.410;9.740;2023-05-19T07:34:41;14.10;99.90
4964;DHT22;2497;47.410;9.740;2023-05-19T07:37:08;14.00;99.90
4964;DHT22;2497;47.410;9.740;2023-05-19T07:39:43;14.20;99.90
4964;DHT22;2497;47.410;9.740;2023-05-19T07:42:10;14.40;99.90
4964;DHT22;2497;47.410;9.740;2023-05-19T07:44:38;14.30;99.90
4964;DHT22;2497;47.410;9.740;2023-05-19T07:47:06;14.60;99.90
4964;DHT22;2497;47.410;9.740;2023-05-19T07:49:33;15.00;99.90
4964;DHT22;2497;47.410;9.740;2023-05-19T07:52:00;14.70;99.90
4964;DHT22;2497;47.410;9.740;2023-05-19T07:54:27;14.70;99.90
4964;DHT22;2497;47.410;9.740;2023-05-19T07:56:54;14.80;99.90
4964;DHT22;2497;47.410;9.740;2023-05-19T07:59:21;15.10;99.90
4964;DHT22;2497;47.410;9.740;2023-05-19T08:01:48;15.30;99.90
4964;DHT22;2497;47.410;9.740;2023-05-19T08:04:17;15.70;99.90
4964;DHT22;2497;47.410;9.740;2023-05-19T08:06:44;15.90;99.90
4964;DHT22;2497;47.410;9.740;2023-05-19T08:09:11;15.60;99.90
4964;DHT22;2497;47.410;9.740;2023-05-19T08:11:38;15.50;99.90
4964;DHT22;2497;47.410;9.740;2023-05-19T08:14:05;15.10;99.90
4964;DHT22;2497;47.410;9.740;2023-05-19T08:16:33;14.70;99.90
4964;DHT22;2497;47.410;9.740;2023-05-19T08:19:00;14.80;99.90
4964;DHT22;2497;47.410;9.740;2023-05-19T08:21:31;14.80;99.90
4964;DHT22;2497;47.410;9.740;2023-05-19T08:24:00;15.00;99.90
4964;DHT22;2497;47.410;9.740;2023-05-19T08:26:29;15.10;99.90
4964;DHT22;2497;47.410;9.740;2023-05-19T08:28:56;15.70;99.90
4964;DHT22;2497;47.410;9.740;2023-05-19T08:31:23;15.60;99.90
4964;DHT22;2497;47.410;9.740;2023-05-19T08:33:50;15.90;99.90
4964;DHT22;2497;47.410;9.740;2023-05-19T08:36:17;16.30;99.90
4964;DHT22;2497;47.410;9.740;2023-05-19T08:38:46;16.40;99.90
4964;DHT22;2497;47.410;9.740;2023-05-19T08:41:13;16.60;99.90
4964;DHT22;2497;47.410;9.740;2023-05-19T08:43:41;16.80;99.90
4964;DHT22;2497;47.410;9.740;2023-05-19T08:46:10;16.60;99.90
4964;DHT22;2497;47.410;9.740;2023-05-19T08:48:41;16.60;99.90
4964;DHT22;2497;47.410;9.740;2023-05-19T08:51:16;16.50;99.90
4964;DHT22;2497;47.410;9.740;2023-05-19T08:53:49;16.20;99.90
4964;DHT22;2497;47.410;9.740;2023-05-19T08:56:21;15.90;99.90
4964;DHT22;2497;47.410;9.740;2023-05-19T08:58:50;15.70;99.90
4964;DHT22;2497;47.410;9.740;2023-05-19T09:01:19;15.60;99.90
4964;DHT22;2497;47.410;9.740;2023-05-19T09:03:50;15.50;99.90
4964;DHT22;2497;47.410;9.740;2023-05-19T09:06:18;15.60;99.90
4964;DHT22;2497;47.410;9.740;2023-05-19T09:08:53;15.60;99.90
4964;DHT22;2497;47.410;9.740;2023-05-19T09:11:20;15.30;99.90
4964;DHT22;2497;47.410;9.740;2023-05-19T09:13:47;14.90;99.90
4964;DHT22;2497;47.410;9.740;2023-05-19T09:16:15;14.80;99.90
4964;DHT22;2497;47.410;9.740;2023-05-19T09:18:52;14.70;99.90
4964;DHT22;2497;47.410;9.740;2023-05-19T09:21:26;14.80;99.90
4964;DHT22;2497;47.410;9.740;2023-05-19T09:23:57;14.90;99.90
4964;DHT22;2497;47.410;9.740;2023-05-19T09:26:24;15.00;99.90
4964;DHT22;2497;47.410;9.740;2023-05-19T09:29:09;15.10;99.90
4964;DHT22;2497;47.410;9.740;2023-05-19T09:31:36;15.10;99.90
4964;DHT22;2497;47.410;9.740;2023-05-19T09:34:10;15.20;99.90
4964;DHT22;2497;47.410;9.740;2023-05-19T09:36:38;15.20;99.90
4964;DHT22;2497;47.410;9.740;2023-05-19T09:39:13;15.00;99.90
4964;DHT22;2497;47.410;9.740;2023-05-19T09:41:41;15.00;99.90
4964;DHT22;2497;47.410;9.740;2023-05-19T09:44:12;15.20;99.90
4964;DHT22;2497;47.410;9.740;2023-05-19T09:46:47;15.40;99.90
4964;DHT22;2497;47.410;9.740;2023-05-19T09:49:18;15.30;99.90
4964;DHT22;2497;47.410;9.740;2023-05-19T09:51:49;15.50;99.90
4964;DHT22;2497;47.410;9.740;2023-05-19T09:54:19;15.60;99.90
4964;DHT22;2497;47.410;9.740;2023-05-19T09:56:51;15.60;99.90
4964;DHT22;2497;47.410;9.740;2023-05-19T09:59:19;15.60;99.90
4964;DHT22;2497;47.410;9.740;2023-05-19T10:01:50;15.70;99.90
4964;DHT22;2497;47.410;9.740;2023-05-19T10:04:18;15.60;99.90
4964;DHT22;2497;47.410;9.740;2023-05-19T10:06:48;15.50;99.90
4964;DHT22;2497;47.410;9.740;2023-05-19T10:09:21;15.50;99.90
4964;DHT22;2497;47.410;9.740;2023-05-19T10:11:51;15.40;99.90
4964;DHT22;2497;47.410;9.740;2023-05-19T10:14:22;15.50;99.90
4964;DHT22;2497;47.410;9.740;2023-05-19T10:16:50;15.70;99.90
4964;DHT22;2497;47.410;9.740;2023-05-19T10:19:21;15.90;99.90
4964;DHT22;2497;47.410;9.740;2023-05-19T10:21:50;15.90;99.90
4964;DHT22;2497;47.410;9.740;2023-05-19T10:24:21;15.60;99.90
4964;DHT22;2497;47.410;9.740;2023-05-19T10:26:51;15.50;99.90
4964;DHT22;2497;47.410;9.740;2023-05-19T10:29:24;15.70;99.90
4964;DHT22;2497;47.410;9.740;2023-05-19T10:31:53;15.60;99.90
4964;DHT22;2497;47.410;9.740;2023-05-19T10:34:50;15.70;99.90
4964;DHT22;2497;47.410;9.740;2023-05-19T10:37:27;15.80;99.90
4964;DHT22;2497;47.410;9.740;2023-05-19T10:39:59;15.80;99.90
4964;DHT22;2497;47.410;9.740;2023-05-19T10:42:37;15.90;99.90
4964;DHT22;2497;47.410;9.740;2023-05-19T10:45:12;15.60;99.90
4964;DHT22;2497;47.410;9.740;2023-05-19T10:47:40;15.80;99.90
4964;DHT22;2497;47.410;9.740;2023-05-19T10:50:07;16.10;99.90
4964;DHT22;2497;47.410;9.740;2023-05-19T10:52:36;16.00;99.90
4964;DHT22;2497;47.410;9.740;2023-05-19T10:55:06;16.20;99.90
4964;DHT22;2497;47.410;9.740;2023-05-19T10:57:35;16.30;99.90
4964;DHT22;2497;47.410;9.740;2023-05-19T11:00:04;16.20;99.90
4964;DHT22;2497;47.410;9.740;2023-05-19T11:02:40;16.10;99.90
4964;DHT22;2497;47.410;9.740;2023-05-19T11:05:08;16.20;99.90
4964;DHT22;2497;47.410;9.740;2023-05-19T11:07:35;16.10;99.90
4964;DHT22;2497;47.410;9.740;2023-05-19T11:10:07;16.40;99.90
4964;DHT22;2497;47.410;9.740;2023-05-19T11:12:41;16.40;99.90
4964;DHT22;2497;47.410;9.740;2023-05-19T11:15:13;16.70;99.90
4964;DHT22;2497;47.410;9.740;2023-05-19T11:17:41;16.70;99.90
4964;DHT22;2497;47.410;9.740;2023-05-19T11:20:18;16.60;99.90
4964;DHT22;2497;47.410;9.740;2023-05-19T11:23:03;16.60;99.90
4964;DHT22;2497;47.410;9.740;2023-05-19T11:25:45;16.80;99.90
4964;DHT22;2497;47.410;9.740;2023-05-19T11:28:14;17.30;99.90
4964;DHT22;2497;47.410;9.740;2023-05-19T11:30:43;17.60;99.90
4964;DHT22;2497;47.410;9.740;2023-05-19T11:33:11;17.60;99.90
4964;DHT22;2497;47.410;9.740;2023-05-19T11:35:39;17.50;99.90
4964;DHT22;2497;47.410;9.740;2023-05-19T11:38:06;17.40;99.90
4964;DHT22;2497;47.410;9.740;2023-05-19T11:40:33;17.40;99.90
4964;DHT22;2497;47.410;9.740;2023-05-19T11:43:02;17.60;99.90
4964;DHT22;2497;47.410;9.740;2023-05-19T11:45:30;17.50;99.90
4964;DHT22;2497;47.410;9.740;2023-05-19T11:47:58;17.30;99.90
4964;DHT22;2497;47.410;9.740;2023-05-19T11:50:25;17.10;99.90
4964;DHT22;2497;47.410;9.740;2023-05-19T11:52:52;17.10;99.90
4964;DHT22;2497;47.410;9.740;2023-05-19T11:55:20;17.10;99.90
4964;DHT22;2497;47.410;9.740;2023-05-19T11:57:56;16.90;99.90
4964;DHT22;2497;47.410;9.740;2023-05-19T12:00:24;16.80;99.90
4964;DHT22;2497;47.410;9.740;2023-05-19T12:02:52;17.40;99.90
4964;DHT22;2497;47.410;9.740;2023-05-19T12:05:20;17.50;99.90
4964;DHT22;2497;47.410;9.740;2023-05-19T12:07:48;17.80;99.90
4964;DHT22;2497;47.410;9.740;2023-05-19T12:10:16;18.00;99.90
4964;DHT22;2497;47.410;9.740;2023-05-19T12:12:45;18.30;99.90
4964;DHT22;2497;47.410;9.740;2023-05-19T12:15:14;18.80;99.90
4964;DHT22;2497;47.410;9.740;2023-05-19T12:17:48;18.70;99.90
4964;DHT22;2497;47.410;9.740;2023-05-19T12:20:16;18.60;99.90
4964;DHT22;2497;47.410;9.740;2023-05-19T12:22:43;18.30;99.90
4964;DHT22;2497;47.410;9.740;2023-05-19T12:25:10;17.90;99.90
4964;DHT22;2497;47.410;9.740;2023-05-19T12:27:38;17.80;99.90
4964;DHT22;2497;47.410;9.740;2023-05-19T12:30:06;17.80;99.90
4964;DHT22;2497;47.410;9.740;2023-05-19T12:32:33;17.70;99.90
4964;DHT22;2497;47.410;9.740;2023-05-19T12:35:04;17.70;99.90
4964;DHT22;2497;47.410;9.740;2023-05-19T12:37:32;17.70;99.90
4964;DHT22;2497;47.410;9.740;2023-05-19T12:40:01;17.50;99.90
4964;DHT22;2497;47.410;9.740;2023-05-19T12:42:43;17.50;99.90
4964;DHT22;2497;47.410;9.740;2023-05-19T12:45:22;17.40;99.90
4964;DHT22;2497;47.410;9.740;2023-05-19T12:47:50;17.40;99.90
4964;DHT22;2497;47.410;9.740;2023-05-19T12:50:19;17.50;99.90
4964;DHT22;2497;47.410;9.740;2023-05-19T12:52:48;17.40;99.90
4964;DHT22;2497;47.410;9.740;2023-05-19T12:55:16;17.40;99.90
4964;DHT22;2497;47.410;9.740;2023-05-19T12:57:48;17.10;99.90
4964;DHT22;2497;47.410;9.740;2023-05-19T13:00:17;17.00;99.90
4964;DHT22;2497;47.410;9.740;2023-05-19T13:02:55;17.00;99.90
4964;DHT22;2497;47.410;9.740;2023-05-19T13:05:25;17.00;99.90
4964;DHT22;2497;47.410;9.740;2023-05-19T13:07:54;17.20;99.90
4964;DHT22;2497;47.410;9.740;2023-05-19T13:10:21;17.20;99.90
4964;DHT22;2497;47.410;9.740;2023-05-19T13:12:48;17.30;99.90
4964;DHT22;2497;47.410;9.740;2023-05-19T13:15:15;17.20;99.90
4964;DHT22;2497;47.410;9.740;2023-05-19T13:17:43;17.10;99.90
4964;DHT22;2497;47.410;9.740;2023-05-19T13:20:11;16.70;99.90
4964;DHT22;2497;47.410;9.740;2023-05-19T13:22:39;16.80;99.90
4964;DHT22;2497;47.410;9.740;2023-05-19T13:25:08;16.80;99.90
4964;DHT22;2497;47.410;9.740;2023-05-19T13:27:36;16.90;99.90
4964;DHT22;2497;47.410;9.740;2023-05-19T13:30:04;17.00;99.90
4964;DHT22;2497;47.410;9.740;2023-05-19T13:32:31;16.90;99.90
4964;DHT22;2497;47.410;9.740;2023-05-19T13:35:13;16.60;99.90
4964;DHT22;2497;47.410;9.740;2023-05-19T13:37:46;16.70;99.90
4964;DHT22;2497;47.410;9.740;2023-05-19T13:40:16;16.60;99.90
4964;DHT22;2497;47.410;9.740;2023-05-19T13:42:44;16.50;99.90
4964;DHT22;2497;47.410;9.740;2023-05-19T13:45:11;16.40;99.90
4964;DHT22;2497;47.410;9.740;2023-05-19T13:47:38;16.40;99.90
4964;DHT22;2497;47.410;9.740;2023-05-19T13:50:06;16.50;99.90
4964;DHT22;2497;47.410;9.740;2023-05-19T13:52:33;16.50;99.90
4964;DHT22;2497;47.410;9.740;2023-05-19T13:55:02;16.30;99.90
4964;DHT22;2497;47.410;9.740;2023-05-19T13:57:29;16.20;99.90
4964;DHT22;2497;47.410;9.740;2023-05-19T13:59:56;16.10;99.90
4964;DHT22;2497;47.410;9.740;2023-05-19T14:02:23;16.10;99.90
4964;DHT22;2497;47.410;9.740;2023-05-19T14:04:50;16.10;99.90
4964;DHT22;2497;47.410;9.740;2023-05-19T14:07:18;15.90;99.90
4964;DHT22;2497;47.410;9.740;2023-05-19T14:09:45;15.80;99.90
4964;DHT22;2497;47.410;9.740;2023-05-19T14:12:14;15.90;99.90
4964;DHT22;2497;47.410;9.740;2023-05-19T14:14:42;15.90;99.90
4964;DHT22;2497;47.410;9.740;2023-05-19T14:17:09;16.00;99.90
4964;DHT22;2497;47.410;9.740;2023-05-19T14:19:36;15.90;99.90
4964;DHT22;2497;47.410;9.740;2023-05-19T14:22:04;15.80;99.90
4964;DHT22;2497;47.410;9.740;2023-05-19T14:24:31;15.70;99.90
4964;DHT22;2497;47.410;9.740;2023-05-19T14:26:58;15.70;99.90
4964;DHT22;2497;47.410;9.740;2023-05-19T14:29:27;15.70;99.90
4964;DHT22;2497;47.410;9.740;2023-05-19T14:31:55;15.70;99.90
4964;DHT22;2497;47.410;9.740;2023-05-19T14:34:22;15.80;99.90
4964;DHT22;2497;47.410;9.740;2023-05-19T14:36:49;15.80;99.90
4964;DHT22;2497;47.410;9.740;2023-05-19T14:39:16;15.80;99.90
4964;DHT22;2497;47.410;9.740;2023-05-19T14:41:43;15.90;99.90
4964;DHT22;2497;47.410;9.740;2023-05-19T14:44:11;15.80;99.90
4964;DHT22;2497;47.410;9.740;2023-05-19T14:46:40;15.90;99.90
4964;DHT22;2497;47.410;9.740;2023-05-19T14:49:07;15.90;99.90
4964;DHT22;2497;47.410;9.740;2023-05-19T14:51:35;15.90;99.90
4964;DHT22;2497;47.410;9.740;2023-05-19T14:54:02;15.90;99.90
4964;DHT22;2497;47.410;9.740;2023-05-19T14:56:31;15.80;99.90
4964;DHT22;2497;47.410;9.740;2023-05-19T14:59:19;15.80;99.90
4964;DHT22;2497;47.410;9.740;2023-05-19T15:01:58;16.00;99.90
4964;DHT22;2497;47.410;9.740;2023-05-19T15:04:37;16.10;99.90
4964;DHT22;2497;47.410;9.740;2023-05-19T15:07:04;15.90;99.90
4964;DHT22;2497;47.410;9.740;2023-05-19T15:09:37;15.80;99.90
4964;DHT22;2497;47.410;9.740;2023-05-19T15:12:04;15.80;99.90
4964;DHT22;2497;47.410;9.740;2023-05-19T15:14:32;15.90;99.90
4964;DHT22;2497;47.410;9.740;2023-05-19T15:17:00;15.90;99.90
4964;DHT22;2497;47.410;9.740;2023-05-19T15:19:27;15.90;99.90
4964;DHT22;2497;47.410;9.740;2023-05-19T15:21:54;15.90;99.90
4964;DHT22;2497;47.410;9.740;2023-05-19T15:24:21;15.90;99.90
4964;DHT22;2497;47.410;9.740;2023-05-19T15:26:48;15.80;99.90
4964;DHT22;2497;47.410;9.740;2023-05-19T15:29:16;15.80;99.90
4964;DHT22;2497;47.410;9.740;2023-05-19T15:31:44;15.80;99.90
4964;DHT22;2497;47.410;9.740;2023-05-19T15:34:12;15.90;99.90
4964;DHT22;2497;47.410;9.740;2023-05-19T15:36:39;15.80;99.90
4964;DHT22;2497;47.410;9.740;2023-05-19T15:39:06;15.80;99.90
4964;DHT22;2497;47.410;9.740;2023-05-19T15:41:34;15.80;99.90
4964;DHT22;2497;47.410;9.740;2023-05-19T15:44:01;15.80;99.90
4964;DHT22;2497;47.410;9.740;2023-05-19T15:46:29;15.80;99.90
4964;DHT22;2497;47.410;9.740;2023-05-19T15:48:56;15.80;99.90
4964;DHT22;2497;47.410;9.740;2023-05-19T15:51:24;15.80;99.90
4964;DHT22;2497;47.410;9.740;2023-05-19T15:53:52;15.70;99.90
4964;DHT22;2497;47.410;9.740;2023-05-19T15:56:19;15.70;99.90
4964;DHT22;2497;47.410;9.740;2023-05-19T15:58:47;15.70;99.90
4964;DHT22;2497;47.410;9.740;2023-05-19T16:01:14;15.70;99.90
4964;DHT22;2497;47.410;9.740;2023-05-19T16:03:42;15.70;99.90
4964;DHT22;2497;47.410;9.740;2023-05-19T16:06:09;15.60;99.90
4964;DHT22;2497;47.410;9.740;2023-05-19T16:08:37;15.60;99.90
4964;DHT22;2497;47.410;9.740;2023-05-19T16:11:05;15.50;99.90
4964;DHT22;2497;47.410;9.740;2023-05-19T16:13:32;15.40;99.90
4964;DHT22;2497;47.410;9.740;2023-05-19T16:15:59;15.30;99.90